createdAt,value
2023-05-19T00:01:50.371Z,9.27
2023-05-19T00:04:17.355Z,9.22
2023-05-19T00:06:46.730Z,9.17
2023-05-19T00:09:13.414Z,9.07
2023-05-19T00:11:54.995Z,9.08
2023-05-19T00:14:26.524Z,9.07
2023-05-19T00:16:59.471Z,9.02
2023-05-19T00:19:28.848Z,8.99
2023-05-19T00:21:55.515Z,8.95
2023-05-19T00:24:22.028Z,8.86
2023-05-19T00:26:48.634Z,8.88
2023-05-19T00:29:18.589Z,8.87
2023-05-19T00:31:45.347Z,8.83
2023-05-19T00:34:11.902Z,8.82
2023-05-19T00:36:38.433Z,8.78
2023-05-19T00:39:07.838Z,8.77
2023-05-19T00:41:34.508Z,8.75
2023-05-19T00:44:01.049Z,8.72
2023-05-19T00:46:27.747Z,8.67
2023-05-19T00:51:29.866Z,8.61
2023-05-19T00:53:56.636Z,8.60
2023-05-19T00:56:23.416Z,8.55
2023-05-19T00:58:51.371Z,8.51
2023-05-19T01:01:18.976Z,8.47
2023-05-19T01:03:47.111Z,8.47
2023-05-19T01:06:15.054Z,8.47
2023-05-19T01:08:41.624Z,8.46
2023-05-19T01:11:08.384Z,8.45
2023-05-19T01:13:36.334Z,8.43
2023-05-19T01:16:11.259Z,8.35
2023-05-19T01:19:01.852Z,8.31
2023-05-19T01:22:01.159Z,8.24
2023-05-19T01:24:39.074Z,8.22
2023-05-19T01:27:46.658Z,8.15
2023-05-19T01:30:13.152Z,8.13
2023-05-19T01:32:42.380Z,8.07
2023-05-19T01:35:12.684Z,8.06
2023-05-19T01:37:41.184Z,8.05
2023-05-19T01:40:09.042Z,8.05
2023-05-19T01:42:38.679Z,8.04
2023-05-19T01:45:10.278Z,7.97
2023-05-19T01:47:39.866Z,8.03
2023-05-19T01:50:07.022Z,8.02
2023-05-19T01:52:34.178Z,8.04
2023-05-19T01:55:00.787Z,8.02
2023-05-19T01:57:54.990Z,8.02
2023-05-19T02:00:34.735Z,8.03
2023-05-19T02:03:07.626Z,8.05
2023-05-19T02:05:53.419Z,8.03
2023-05-19T02:08:28.713Z,8.05
2023-05-19T02:11:14.810Z,8.00
2023-05-19T02:13:44.196Z,7.97
2023-05-19T02:16:13.267Z,7.96
2023-05-19T02:18:40.080Z,7.94
2023-05-19T02:21:06.863Z,7.92
2023-05-19T02:23:36.466Z,7.89
2023-05-19T02:26:03.032Z,7.91
2023-05-19T02:28:29.558Z,7.87
2023-05-19T02:30:56.104Z,7.83
2023-05-19T02:33:27.437Z,7.74
2023-05-19T02:35:53.979Z,7.78
2023-05-19T02:38:21.348Z,7.77
2023-05-19T02:40:47.853Z,7.74
2023-05-19T02:43:14.487Z,7.75
2023-05-19T02:45:41.094Z,7.71
2023-05-19T02:48:07.678Z,7.71
2023-05-19T02:50:34.351Z,7.67
2023-05-19T02:53:01.080Z,7.67
2023-05-19T02:55:27.595Z,7.62
2023-05-19T02:57:54.128Z,7.64
2023-05-19T03:00:20.675Z,7.61
2023-05-19T03:02:47.330Z,7.57
2023-05-19T03:05:14.313Z,7.54
2023-05-19T03:07:40.982Z,7.54
2023-05-19T03:10:09.038Z,7.50
2023-05-19T03:12:35.633Z,7.52
2023-05-19T03:15:02.274Z,7.50
2023-05-19T03:17:33.575Z,7.44
2023-05-19T03:20:01.474Z,7.45
2023-05-19T03:22:28.018Z,7.42
2023-05-19T03:24:54.585Z,7.42
2023-05-19T03:27:21.283Z,7.39
2023-05-19T03:29:47.780Z,7.38
2023-05-19T03:32:14.298Z,7.40
2023-05-19T03:34:40.926Z,7.36
2023-05-19T03:37:07.842Z,7.36
2023-05-19T03:39:34.390Z,7.34
2023-05-19T03:42:00.984Z,7.31
2023-05-19T03:44:27.494Z,7.33
2023-05-19T03:46:53.988Z,7.30
2023-05-19T03:49:20.504Z,7.28
2023-05-19T03:51:47.032Z,7.26
2023-05-19T03:54:13.505Z,7.25
2023-05-19T03:56:40.180Z,7.28
2023-05-19T03:59:07.335Z,7.30
2023-05-19T04:01:34.021Z,7.29
2023-05-19T04:04:00.575Z,7.26
2023-05-19T04:06:27.529Z,7.22
2023-05-19T04:08:54.119Z,7.19
2023-05-19T04:11:21.456Z,7.20
2023-05-19T04:13:48.072Z,7.25
2023-05-19T04:16:14.947Z,7.26
2023-05-19T04:18:42.373Z,7.28
2023-05-19T04:21:11.237Z,7.30
2023-05-19T04:23:37.743Z,7.31
2023-05-19T04:26:06.751Z,7.32
2023-05-19T04:28:36.094Z,7.33
2023-05-19T04:31:03.506Z,7.32
2023-05-19T04:33:30.053Z,7.30
2023-05-19T04:35:56.951Z,7.34
2023-05-19T04:38:23.426Z,7.35
2023-05-19T04:40:51.963Z,7.40
2023-05-19T04:43:19.370Z,7.41
2023-05-19T04:45:47.308Z,7.42
2023-05-19T04:48:14.027Z,7.43
2023-05-19T04:50:42.223Z,7.47
2023-05-19T04:53:11.792Z,7.47
2023-05-19T04:55:38.797Z,7.57
2023-05-19T04:58:05.416Z,7.62
2023-05-19T05:00:32.713Z,7.69
2023-05-19T05:02:59.557Z,7.73
2023-05-19T05:05:26.187Z,7.81
2023-05-19T05:07:54.142Z,7.87
2023-05-19T05:10:21.752Z,7.95
2023-05-19T05:12:48.500Z,8.01
2023-05-19T05:15:15.508Z,8.03
2023-05-19T05:17:42.473Z,8.16
2023-05-19T05:20:09.856Z,8.22
2023-05-19T05:22:38.620Z,8.30
2023-05-19T05:25:06.719Z,8.40
2023-05-19T05:27:33.241Z,8.46
2023-05-19T05:29:59.737Z,8.49
2023-05-19T05:32:26.350Z,8.57
2023-05-19T05:34:53.148Z,8.65
2023-05-19T05:37:19.685Z,8.68
2023-05-19T05:39:46.150Z,8.76
2023-05-19T05:42:12.746Z,8.82
2023-05-19T05:44:39.253Z,8.90
2023-05-19T05:47:06.228Z,8.95
2023-05-19T05:49:33.052Z,9.00
2023-05-19T05:52:05.735Z,9.08
2023-05-19T05:54:33.421Z,9.15
2023-05-19T05:57:00.631Z,9.18
2023-05-19T05:59:27.465Z,9.24
2023-05-19T06:01:54.063Z,9.31
2023-05-19T06:04:21.244Z,9.35
2023-05-19T06:06:47.906Z,9.41
2023-05-19T06:09:14.440Z,9.42
2023-05-19T06:11:43.307Z,9.51
2023-05-19T06:14:10.236Z,9.56
2023-05-19T06:16:36.812Z,9.65
2023-05-19T06:19:03.436Z,9.74
2023-05-19T06:21:30.067Z,9.81
2023-05-19T06:23:56.660Z,9.86
2023-05-19T06:26:23.201Z,9.89
2023-05-19T06:28:49.701Z,9.88
2023-05-19T06:31:16.549Z,9.96
2023-05-19T06:33:43.151Z,10.06
2023-05-19T06:36:10.655Z,10.07
2023-05-19T06:38:37.160Z,10.15
2023-05-19T06:41:03.770Z,10.23
2023-05-19T06:43:30.405Z,10.34
2023-05-19T06:45:56.991Z,10.44
2023-05-19T06:48:23.503Z,10.52
2023-05-19T06:50:50.932Z,10.55
2023-05-19T06:53:19.909Z,10.65
2023-05-19T06:55:58.209Z,10.76
2023-05-19T06:58:26.818Z,10.88
2023-05-19T07:00:53.564Z,10.96
2023-05-19T07:03:20.221Z,11.06
2023-05-19T07:05:47.458Z,11.12
2023-05-19T07:08:14.026Z,11.19
2023-05-19T07:10:40.565Z,11.26
2023-05-19T07:13:07.134Z,11.38
2023-05-19T07:15:33.802Z,11.44
2023-05-19T07:18:00.598Z,11.55
2023-05-19T07:20:27.189Z,11.66
2023-05-19T07:22:53.791Z,11.81
2023-05-19T07:25:20.680Z,11.98
2023-05-19T07:27:47.351Z,12.15
2023-05-19T07:30:13.942Z,12.26
2023-05-19T07:32:40.572Z,12.31
2023-05-19T07:35:07.303Z,12.38
2023-05-19T07:37:33.837Z,12.48
2023-05-19T07:40:00.413Z,12.55
2023-05-19T07:42:26.899Z,12.63
2023-05-19T07:44:53.507Z,12.74
2023-05-19T07:47:20.118Z,12.82
2023-05-19T07:49:48.598Z,12.83
2023-05-19T07:52:18.205Z,12.86
2023-05-19T07:54:45.659Z,12.94
2023-05-19T07:57:12.325Z,13.02
2023-05-19T07:59:38.869Z,13.14
2023-05-19T08:02:05.735Z,13.24
2023-05-19T08:04:32.931Z,13.34
2023-05-19T08:06:59.785Z,13.41
2023-05-19T08:09:26.685Z,13.50
2023-05-19T08:11:53.481Z,13.61
2023-05-19T08:14:22.718Z,13.71
2023-05-19T08:16:50.023Z,13.75
2023-05-19T08:19:16.597Z,13.85
2023-05-19T08:21:43.314Z,13.95
2023-05-19T08:24:09.918Z,14.02
2023-05-19T08:26:37.767Z,14.04
2023-05-19T08:29:04.909Z,14.14
2023-05-19T08:31:31.661Z,14.24
2023-05-19T08:33:58.240Z,14.35
2023-05-19T08:36:24.859Z,14.46
2023-05-19T08:38:51.562Z,14.57
2023-05-19T08:41:18.162Z,14.66
2023-05-19T08:43:45.393Z,14.76
2023-05-19T08:46:15.040Z,14.80
2023-05-19T08:48:43.915Z,14.85
2023-05-19T08:51:26.146Z,14.89
2023-05-19T08:53:57.761Z,15.01
2023-05-19T08:56:25.228Z,15.18
2023-05-19T08:58:52.200Z,15.34
2023-05-19T09:01:20.404Z,15.37
2023-05-19T09:03:49.902Z,15.40
2023-05-19T09:06:17.115Z,15.50
2023-05-19T09:08:44.349Z,15.64
2023-05-19T09:11:11.154Z,15.83
2023-05-19T09:13:37.915Z,15.99
2023-05-19T09:16:05.322Z,16.10
2023-05-19T09:18:31.916Z,16.19
2023-05-19T09:21:00.512Z,16.37
2023-05-19T09:23:34.642Z,16.56
2023-05-19T09:26:07.946Z,16.65
2023-05-19T09:28:36.820Z,16.77
2023-05-19T09:31:04.793Z,16.88
2023-05-19T09:33:35.045Z,16.88
2023-05-19T09:36:03.094Z,17.04
2023-05-19T09:38:29.699Z,17.28
2023-05-19T09:40:58.360Z,17.36
2023-05-19T09:43:30.800Z,17.42
2023-05-19T09:46:03.641Z,17.35
2023-05-19T09:48:30.478Z,17.42
2023-05-19T09:50:58.098Z,17.58
2023-05-19T09:53:25.497Z,17.61
2023-05-19T09:55:57.563Z,17.63
2023-05-19T09:58:24.754Z,17.68
2023-05-19T10:00:51.773Z,17.67
2023-05-19T10:03:19.253Z,17.60
2023-05-19T10:05:47.387Z,17.49
2023-05-19T10:08:14.458Z,17.33
2023-05-19T10:10:41.448Z,17.24
2023-05-19T10:13:08.407Z,17.34
2023-05-19T10:15:46.680Z,17.42
2023-05-19T10:18:23.618Z,17.57
2023-05-19T10:20:50.446Z,17.66
2023-05-19T10:23:17.147Z,17.74
2023-05-19T10:25:44.850Z,17.89
2023-05-19T10:28:17.893Z,18.01
2023-05-19T10:30:50.919Z,18.23
2023-05-19T10:33:19.224Z,18.19
2023-05-19T10:36:16.580Z,18.10
2023-05-19T10:39:00.664Z,18.36
2023-05-19T10:41:32.980Z,18.61
2023-05-19T10:44:13.625Z,18.59
2023-05-19T10:46:40.838Z,18.51
2023-05-19T10:49:10.561Z,18.58
2023-05-19T10:51:37.250Z,18.72
2023-05-19T10:54:10.440Z,18.81
2023-05-19T10:56:42.367Z,18.85
2023-05-19T10:59:33.262Z,19.02
2023-05-19T11:02:07.184Z,19.14
2023-05-19T11:04:53.460Z,19.17
2023-05-19T11:07:22.301Z,19.21
2023-05-19T11:09:52.524Z,19.35
2023-05-19T11:12:24.978Z,19.32
2023-05-19T11:14:55.634Z,19.12
2023-05-19T11:17:25.678Z,19.20
2023-05-19T11:19:56.751Z,19.29
2023-05-19T11:22:25.912Z,19.46
2023-05-19T11:24:54.747Z,19.62
2023-05-19T11:27:21.267Z,19.78
2023-05-19T11:29:49.138Z,20.00
2023-05-19T11:32:17.491Z,20.26
2023-05-19T11:34:45.446Z,20.40
2023-05-19T11:37:12.408Z,20.57
2023-05-19T11:39:40.346Z,20.68
2023-05-19T11:42:09.682Z,20.81
2023-05-19T11:44:36.538Z,21.01
2023-05-19T11:47:04.408Z,21.11
2023-05-19T11:49:31.378Z,21.35
2023-05-19T11:51:57.987Z,21.76
2023-05-19T11:54:33.372Z,21.92
2023-05-19T11:57:02.772Z,22.33
2023-05-19T11:59:34.965Z,22.55
2023-05-19T12:02:18.963Z,22.84
2023-05-19T12:04:46.373Z,23.11
2023-05-19T12:07:13.768Z,23.43
2023-05-19T12:09:40.420Z,23.73
2023-05-19T12:12:07.913Z,24.09
2023-05-19T12:14:35.872Z,24.58
2023-05-19T12:17:16.988Z,24.70
2023-05-19T12:19:45.055Z,24.70
2023-05-19T12:22:12.488Z,24.50
2023-05-19T12:24:40.115Z,24.18
2023-05-19T12:27:20.105Z,24.47
2023-05-19T12:29:54.090Z,24.61
2023-05-19T12:32:28.755Z,24.90
2023-05-19T12:34:58.821Z,25.31
2023-05-19T12:37:29.954Z,25.62
2023-05-19T12:39:57.399Z,26.00
2023-05-19T12:42:31.118Z,26.12
2023-05-19T12:45:05.915Z,25.69
2023-05-19T12:47:34.841Z,25.24
2023-05-19T12:50:07.739Z,25.32
2023-05-19T12:52:40.598Z,25.29
2023-05-19T12:55:09.136Z,24.72
2023-05-19T12:57:37.036Z,24.56
2023-05-19T13:00:17.748Z,24.75
2023-05-19T13:03:05.266Z,25.15
2023-05-19T13:05:46.456Z,25.26
2023-05-19T13:08:16.181Z,25.44
2023-05-19T13:10:45.908Z,25.89
2023-05-19T13:13:13.017Z,25.95
2023-05-19T13:15:42.073Z,26.36
2023-05-19T13:18:10.081Z,26.66
2023-05-19T13:20:38.659Z,26.61
2023-05-19T13:23:05.832Z,26.16
2023-05-19T13:25:36.089Z,25.83
2023-05-19T13:28:05.587Z,26.09
2023-05-19T13:30:33.966Z,26.38
2023-05-19T13:33:00.989Z,26.51
2023-05-19T13:35:27.674Z,26.57
2023-05-19T13:37:54.426Z,26.76
2023-05-19T13:40:21.033Z,26.82
2023-05-19T13:42:48.152Z,27.29
2023-05-19T13:45:14.731Z,27.28
2023-05-19T13:47:41.492Z,27.47
2023-05-19T13:50:08.308Z,27.31
2023-05-19T13:52:34.824Z,26.63
2023-05-19T13:55:01.376Z,26.40
2023-05-19T13:57:27.886Z,26.00
2023-05-19T14:00:02.544Z,25.26
2023-05-19T14:02:30.031Z,25.62
2023-05-19T14:04:57.508Z,25.99
2023-05-19T14:07:24.202Z,26.47
2023-05-19T14:09:51.993Z,26.23
2023-05-19T14:12:18.682Z,25.94
2023-05-19T14:14:48.279Z,25.58
2023-05-19T14:17:14.764Z,25.33
2023-05-19T14:19:41.255Z,25.30
2023-05-19T14:22:08.912Z,25.63
2023-05-19T14:24:35.428Z,25.89
2023-05-19T14:27:02.194Z,25.65
2023-05-19T14:29:31.020Z,25.84
2023-05-19T14:31:57.755Z,25.80
2023-05-19T14:34:24.279Z,26.01
2023-05-19T14:36:50.923Z,25.99
2023-05-19T14:39:17.489Z,26.10
2023-05-19T14:41:44.032Z,26.15
2023-05-19T14:44:10.661Z,26.18
2023-05-19T14:46:37.200Z,26.28
2023-05-19T14:49:04.226Z,26.57
2023-05-19T14:51:31.591Z,26.55
2023-05-19T14:53:58.232Z,26.08
2023-05-19T14:56:24.802Z,25.56
2023-05-19T14:58:51.378Z,24.72
2023-05-19T15:01:17.897Z,24.66
2023-05-19T15:03:44.535Z,24.34
2023-05-19T15:06:11.213Z,24.14
2023-05-19T15:08:39.204Z,24.05
2023-05-19T15:11:05.941Z,23.39
2023-05-19T15:13:32.492Z,23.36
2023-05-19T15:16:12.474Z,23.21
2023-05-19T15:18:42.819Z,22.96
2023-05-19T15:21:09.446Z,22.84
2023-05-19T15:23:36.138Z,22.61
2023-05-19T15:26:02.753Z,22.42
2023-05-19T15:28:29.325Z,22.25
2023-05-19T15:30:55.832Z,22.00
2023-05-19T15:33:22.398Z,21.85
2023-05-19T15:35:51.657Z,21.79
2023-05-19T15:38:21.129Z,21.79
2023-05-19T15:40:47.670Z,21.75
2023-05-19T15:43:14.236Z,21.65
2023-05-19T15:45:40.965Z,21.57
2023-05-19T15:48:07.800Z,21.43
2023-05-19T15:50:34.685Z,21.23
2023-05-19T15:53:01.666Z,21.22
2023-05-19T15:55:28.338Z,21.27
2023-05-19T15:57:54.849Z,21.37
2023-05-19T16:00:21.524Z,21.57
2023-05-19T16:02:48.261Z,21.63
2023-05-19T16:05:14.863Z,21.89
2023-05-19T16:07:42.160Z,22.11
2023-05-19T16:10:09.148Z,22.17
2023-05-19T16:12:36.728Z,22.29
2023-05-19T16:15:03.764Z,22.38
2023-05-19T16:17:30.447Z,22.57
2023-05-19T16:19:57.132Z,22.70
2023-05-19T16:22:24.886Z,22.74
2023-05-19T16:24:52.300Z,22.62
2023-05-19T16:27:19.155Z,22.71
2023-05-19T16:29:45.925Z,22.51
2023-05-19T16:32:12.793Z,22.54
2023-05-19T16:34:39.589Z,22.34
2023-05-19T16:37:06.206Z,22.35
2023-05-19T16:39:32.754Z,22.41
2023-05-19T16:41:59.327Z,22.35
2023-05-19T16:44:26.036Z,22.32
2023-05-19T16:46:52.555Z,22.04
2023-05-19T16:49:19.086Z,21.91
2023-05-19T16:51:46.925Z,21.79
2023-05-19T16:54:15.354Z,21.72
2023-05-19T16:56:41.888Z,21.94
2023-05-19T16:59:10.227Z,21.81
2023-05-19T17:01:36.739Z,21.98
2023-05-19T17:04:03.319Z,22.09
2023-05-19T17:06:29.794Z,22.22
2023-05-19T17:08:56.322Z,22.08
2023-05-19T17:11:22.896Z,21.84
2023-05-19T17:13:49.416Z,21.64
2023-05-19T17:16:16.051Z,21.26
2023-05-19T17:18:43.758Z,21.04
2023-05-19T17:21:10.619Z,20.83
2023-05-19T17:23:37.855Z,20.56
2023-05-19T17:26:04.844Z,20.37
2023-05-19T17:28:31.708Z,20.20
2023-05-19T17:33:24.810Z,19.91
2023-05-19T17:35:51.460Z,19.74
2023-05-19T17:38:17.980Z,19.54
2023-05-19T17:40:44.519Z,19.47
2023-05-19T17:43:11.152Z,19.30
2023-05-19T17:45:37.686Z,19.23
2023-05-19T17:48:04.759Z,19.20
2023-05-19T17:50:31.493Z,19.14
2023-05-19T17:52:58.529Z,19.05
2023-05-19T17:55:29.737Z,18.92
2023-05-19T17:57:57.335Z,18.82
2023-05-19T18:00:25.225Z,18.68
2023-05-19T18:02:52.515Z,18.69
2023-05-19T18:05:19.809Z,18.56
2023-05-19T18:07:46.413Z,18.52
2023-05-19T18:10:15.292Z,18.47
2023-05-19T18:12:41.869Z,18.47
2023-05-19T18:15:08.694Z,18.39
2023-05-19T18:17:35.268Z,18.34
2023-05-19T18:20:02.172Z,18.32
2023-05-19T18:22:28.770Z,18.21
2023-05-19T18:24:56.165Z,18.15
2023-05-19T18:27:22.658Z,18.04
2023-05-19T18:29:49.192Z,18.04
2023-05-19T18:32:17.648Z,18.01
2023-05-19T18:34:44.247Z,17.91
2023-05-19T18:37:10.872Z,17.86
2023-05-19T18:39:37.446Z,17.82
2023-05-19T18:42:04.215Z,17.74
2023-05-19T18:44:30.725Z,17.66
2023-05-19T18:46:57.176Z,17.58
2023-05-19T18:49:25.026Z,17.49
2023-05-19T18:51:51.902Z,17.50
2023-05-19T18:54:19.462Z,17.42
2023-05-19T18:56:46.100Z,17.39
2023-05-19T18:59:12.862Z,17.32
2023-05-19T19:01:39.554Z,17.29
2023-05-19T19:04:06.283Z,17.22
2023-05-19T19:06:32.839Z,17.16
2023-05-19T19:08:59.340Z,17.00
2023-05-19T19:11:26.326Z,17.04
2023-05-19T19:13:55.445Z,17.00
2023-05-19T19:16:22.407Z,16.95
2023-05-19T19:18:49.199Z,16.88
2023-05-19T19:21:15.834Z,16.79
2023-05-19T19:23:42.429Z,16.73
2023-05-19T19:26:09.605Z,16.67
2023-05-19T19:28:36.527Z,16.61
2023-05-19T19:31:03.128Z,16.52
2023-05-19T19:33:29.617Z,16.33
2023-05-19T19:35:56.485Z,16.26
2023-05-19T19:38:23.029Z,16.22
2023-05-19T19:40:51.994Z,16.16
2023-05-19T19:43:18.945Z,16.05
2023-05-19T19:45:45.450Z,15.94
2023-05-19T19:48:12.488Z,15.80
2023-05-19T19:50:39.062Z,15.81
2023-05-19T19:53:05.620Z,15.79
2023-05-19T19:55:32.353Z,15.70
2023-05-19T19:57:58.925Z,15.62
2023-05-19T20:00:25.468Z,15.47
2023-05-19T20:03:04.378Z,15.35
2023-05-19T20:05:31.990Z,15.27
2023-05-19T20:07:58.560Z,15.25
2023-05-19T20:10:25.168Z,15.15
2023-05-19T20:12:52.021Z,15.04
2023-05-19T20:15:18.713Z,14.99
2023-05-19T20:17:45.749Z,14.98
2023-05-19T20:20:12.730Z,14.93
2023-05-19T20:22:39.587Z,14.93
2023-05-19T20:25:06.568Z,14.90
2023-05-19T20:27:33.217Z,14.85
2023-05-19T20:29:59.789Z,14.86
2023-05-19T20:32:26.422Z,14.84
2023-05-19T20:34:53.054Z,14.84
2023-05-19T20:37:20.991Z,14.68
2023-05-19T20:39:47.780Z,14.66
2023-05-19T20:42:14.332Z,14.62
2023-05-19T20:44:40.969Z,14.59
2023-05-19T20:47:08.180Z,14.52
2023-05-19T20:49:35.052Z,14.50
2023-05-19T20:52:01.781Z,14.43
2023-05-19T20:54:28.460Z,14.40
2023-05-19T20:56:54.965Z,14.36
2023-05-19T20:59:21.522Z,14.27
2023-05-19T21:01:48.209Z,14.23
2023-05-19T21:04:14.773Z,14.18
2023-05-19T21:06:41.427Z,14.17
2023-05-19T21:09:07.965Z,14.15
2023-05-19T21:11:34.652Z,14.12
2023-05-19T21:14:04.182Z,14.05
2023-05-19T21:16:31.460Z,14.04
2023-05-19T21:18:58.119Z,14.00
2023-05-19T21:21:24.791Z,14.02
2023-05-19T21:23:51.299Z,13.97
2023-05-19T21:26:18.066Z,13.95
2023-05-19T21:28:44.636Z,13.88
2023-05-19T21:31:11.276Z,13.84
2023-05-19T21:33:37.819Z,13.82
2023-05-19T21:36:04.552Z,13.80
2023-05-19T21:38:31.070Z,13.76
2023-05-19T21:40:57.572Z,13.72
2023-05-19T21:43:24.132Z,13.71
2023-05-19T21:45:50.716Z,13.69
2023-05-19T21:48:17.610Z,13.71
2023-05-19T21:50:44.473Z,13.72
2023-05-19T21:53:11.023Z,13.71
2023-05-19T21:55:37.551Z,13.69
2023-05-19T21:58:04.056Z,13.66
2023-05-19T22:00:30.603Z,13.64
2023-05-19T22:02:57.193Z,13.63
2023-05-19T22:05:23.767Z,13.61
2023-05-19T22:07:50.530Z,13.60
2023-05-19T22:10:17.387Z,13.63
2023-05-19T22:12:43.917Z,13.61
2023-05-19T22:15:11.448Z,13.62
2023-05-19T22:17:38.057Z,13.59
2023-05-19T22:20:05.496Z,13.58
2023-05-19T22:22:32.060Z,13.55
2023-05-19T22:24:58.663Z,13.54
2023-05-19T22:27:25.209Z,13.56
2023-05-19T22:29:51.734Z,13.52
2023-05-19T22:32:19.481Z,13.53
2023-05-19T22:34:46.350Z,13.52
2023-05-19T22:37:13.053Z,13.53
2023-05-19T22:39:39.647Z,13.55
2023-05-19T22:42:06.205Z,13.57
2023-05-19T22:44:32.808Z,13.57
2023-05-19T22:46:59.350Z,13.59
2023-05-19T22:49:27.409Z,13.56
2023-05-19T22:51:54.038Z,13.55
2023-05-19T22:54:20.649Z,13.58
2023-05-19T22:56:48.829Z,13.56
2023-05-19T22:59:17.946Z,13.56
2023-05-19T23:01:46.465Z,13.59
2023-05-19T23:04:13.862Z,13.61
2023-05-19T23:06:40.585Z,13.63
2023-05-19T23:09:07.112Z,13.60
2023-05-19T23:11:34.722Z,13.59
2023-05-19T23:14:01.977Z,13.59
2023-05-19T23:16:28.510Z,13.57
2023-05-19T23:18:55.080Z,13.55
2023-05-19T23:21:21.677Z,13.51
2023-05-19T23:23:48.276Z,13.45
2023-05-19T23:26:14.783Z,13.34
2023-05-19T23:28:44.495Z,13.24
2023-05-19T23:31:11.091Z,13.21
2023-05-19T23:33:37.706Z,13.15
2023-05-19T23:36:08.342Z,13.04
2023-05-19T23:38:36.011Z,13.03
2023-05-19T23:41:02.712Z,13.01
2023-05-19T23:43:29.553Z,12.99
2023-05-19T23:45:56.188Z,12.96
2023-05-19T23:48:22.775Z,12.94
2023-05-19T23:50:49.398Z,12.87
2023-05-19T23:53:15.941Z,12.78
2023-05-19T23:55:42.587Z,12.76
2023-05-19T23:58:09.221Z,12.73
